sensor_id;sensor_type;location;lat;lon;timestamp;pressure;altitude;pressure_sealevel;temperature;humidity
39487;BME280;25173;50.430;18.926;2023-04-03T00:00:42;98678.53;;;4.74;74.84
39487;BME280;25173;50.430;18.926;2023-04-03T00:03:43;98675.75;;;4.81;74.91
39487;BME280;25173;50.430;18.926;2023-04-03T00:06:43;98683.28;;;4.90;74.98
39487;BME280;25173;50.430;18.926;2023-04-03T00:09:44;98683.22;;;4.97;74.86
39487;BME280;25173;50.430;18.926;2023-04-03T00:12:44;98684.13;;;4.91;74.67
39487;BME280;25173;50.430;18.926;2023-04-03T00:15:45;98695.69;;;4.80;74.65
39487;BME280;25173;50.430;18.926;2023-04-03T00:18:45;98684.84;;;4.61;74.93
39487;BME280;25173;50.430;18.926;2023-04-03T00:21:46;98688.66;;;4.54;75.42
39487;BME280;25173;50.430;18.926;2023-04-03T00:24:46;98683.72;;;4.51;75.52
39487;BME280;25173;50.430;18.926;2023-04-03T00:27:47;98679.38;;;4.50;75.47
39487;BME280;25173;50.430;18.926;2023-04-03T00:30:48;98680.84;;;4.46;75.33
39487;BME280;25173;50.430;18.926;2023-04-03T00:33:49;98685.06;;;4.42;75.41
39487;BME280;25173;50.430;18.926;2023-04-03T00:36:50;98677.78;;;4.42;75.67
39487;BME280;25173;50.430;18.926;2023-04-03T00:39:51;98680.50;;;4.42;75.50
39487;BME280;25173;50.430;18.926;2023-04-03T00:42:58;98684.84;;;4.43;75.40
39487;BME280;25173;50.430;18.926;2023-04-03T00:45:59;98684.59;;;4.45;75.43
39487;BME280;25173;50.430;18.926;2023-04-03T00:49:00;98685.38;;;4.52;75.35
39487;BME280;25173;50.430;18.926;2023-04-03T00:52:01;98689.88;;;4.58;75.32
39487;BME280;25173;50.430;18.926;2023-04-03T00:55:05;98687.47;;;4.68;75.26
39487;BME280;25173;50.430;18.926;2023-04-03T00:58:08;98678.28;;;4.76;74.89
39487;BME280;25173;50.430;18.926;2023-04-03T01:01:12;98688.41;;;4.80;74.83
39487;BME280;25173;50.430;18.926;2023-04-03T01:04:31;98700.31;;;4.91;74.48
39487;BME280;25173;50.430;18.926;2023-04-03T01:07:32;98700.38;;;4.84;74.08
39487;BME280;25173;50.430;18.926;2023-04-03T01:10:37;98698.16;;;4.81;74.13
39487;BME280;25173;50.430;18.926;2023-04-03T01:13:38;98701.28;;;4.78;73.93
39487;BME280;25173;50.430;18.926;2023-04-03T01:16:40;98697.41;;;4.74;74.02
39487;BME280;25173;50.430;18.926;2023-04-03T01:19:44;98693.19;;;4.78;74.06
39487;BME280;25173;50.430;18.926;2023-04-03T01:25:55;98700.38;;;4.84;73.60
39487;BME280;25173;50.430;18.926;2023-04-03T01:28:58;98709.59;;;4.77;73.57
39487;BME280;25173;50.430;18.926;2023-04-03T01:32:00;98709.06;;;4.68;73.23
39487;BME280;25173;50.430;18.926;2023-04-03T01:35:02;98709.88;;;4.68;73.53
39487;BME280;25173;50.430;18.926;2023-04-03T01:38:03;98708.03;;;4.69;73.60
39487;BME280;25173;50.430;18.926;2023-04-03T01:41:03;98706.53;;;4.73;73.60
39487;BME280;25173;50.430;18.926;2023-04-03T01:44:04;98705.66;;;4.79;73.54
39487;BME280;25173;50.430;18.926;2023-04-03T01:47:06;98706.69;;;4.78;73.31
39487;BME280;25173;50.430;18.926;2023-04-03T01:50:07;98708.34;;;4.79;73.28
39487;BME280;25173;50.430;18.926;2023-04-03T01:53:09;98705.88;;;4.78;72.97
39487;BME280;25173;50.430;18.926;2023-04-03T01:56:09;98715.06;;;4.70;72.76
39487;BME280;25173;50.430;18.926;2023-04-03T01:59:10;98720.09;;;4.66;73.16
39487;BME280;25173;50.430;18.926;2023-04-03T02:02:11;98729.72;;;4.56;72.67
39487;BME280;25173;50.430;18.926;2023-04-03T02:05:12;98723.25;;;4.39;72.86
39487;BME280;25173;50.430;18.926;2023-04-03T02:08:13;98722.69;;;4.30;73.33
39487;BME280;25173;50.430;18.926;2023-04-03T02:11:14;98725.16;;;4.32;73.43
39487;BME280;25173;50.430;18.926;2023-04-03T02:14:14;98725.16;;;4.32;73.38
39487;BME280;25173;50.430;18.926;2023-04-03T02:17:15;98724.78;;;4.28;72.83
39487;BME280;25173;50.430;18.926;2023-04-03T02:20:16;98727.53;;;4.21;72.91
39487;BME280;25173;50.430;18.926;2023-04-03T02:23:16;98739.19;;;4.15;72.87
39487;BME280;25173;50.430;18.926;2023-04-03T02:26:18;98737.94;;;4.18;73.27
39487;BME280;25173;50.430;18.926;2023-04-03T02:29:19;98746.31;;;4.03;72.30
39487;BME280;25173;50.430;18.926;2023-04-03T02:32:20;98735.81;;;3.95;72.61
39487;BME280;25173;50.430;18.926;2023-04-03T02:35:21;98747.66;;;3.87;72.09
39487;BME280;25173;50.430;18.926;2023-04-03T02:38:24;98746.66;;;3.82;72.27
39487;BME280;25173;50.430;18.926;2023-04-03T02:41:25;98744.84;;;3.76;71.98
39487;BME280;25173;50.430;18.926;2023-04-03T02:44:30;98751.47;;;3.73;72.10
39487;BME280;25173;50.430;18.926;2023-04-03T02:47:30;98745.72;;;3.70;71.85
39487;BME280;25173;50.430;18.926;2023-04-03T02:50:31;98744.69;;;3.64;71.30
39487;BME280;25173;50.430;18.926;2023-04-03T02:53:31;98755.28;;;3.59;71.69
39487;BME280;25173;50.430;18.926;2023-04-03T02:56:37;98751.19;;;3.50;71.63
39487;BME280;25173;50.430;18.926;2023-04-03T02:59:38;98744.63;;;3.39;71.69
39487;BME280;25173;50.430;18.926;2023-04-03T03:02:43;98757.88;;;3.34;71.84
39487;BME280;25173;50.430;18.926;2023-04-03T03:05:43;98757.88;;;3.34;71.82
39487;BME280;25173;50.430;18.926;2023-04-03T03:08:44;98750.47;;;3.23;71.34
39487;BME280;25173;50.430;18.926;2023-04-03T03:11:45;98759.41;;;3.17;71.66
39487;BME280;25173;50.430;18.926;2023-04-03T03:14:45;98755.28;;;3.08;71.57
39487;BME280;25173;50.430;18.926;2023-04-03T03:17:46;98753.44;;;3.02;71.75
39487;BME280;25173;50.430;18.926;2023-04-03T03:20:46;98754.69;;;2.93;71.91
39487;BME280;25173;50.430;18.926;2023-04-03T03:23:50;98757.59;;;2.91;72.07
39487;BME280;25173;50.430;18.926;2023-04-03T03:26:51;98760.09;;;2.93;72.00
39487;BME280;25173;50.430;18.926;2023-04-03T03:29:52;98759.28;;;2.86;71.84
39487;BME280;25173;50.430;18.926;2023-04-03T03:32:52;98766.31;;;2.87;71.96
39487;BME280;25173;50.430;18.926;2023-04-03T03:35:55;98761.78;;;2.81;71.67
39487;BME280;25173;50.430;18.926;2023-04-03T03:38:55;98769.22;;;2.79;71.59
39487;BME280;25173;50.430;18.926;2023-04-03T03:41:56;98763.84;;;2.79;71.79
39487;BME280;25173;50.430;18.926;2023-04-03T03:44:57;98767.16;;;2.81;71.80
39487;BME280;25173;50.430;18.926;2023-04-03T03:47:58;98777.28;;;2.79;71.53
39487;BME280;25173;50.430;18.926;2023-04-03T03:50:59;98767.97;;;2.74;71.60
39487;BME280;25173;50.430;18.926;2023-04-03T03:54:04;98777.69;;;2.69;71.65
39487;BME280;25173;50.430;18.926;2023-04-03T03:57:05;98774.81;;;2.64;71.59
39487;BME280;25173;50.430;18.926;2023-04-03T04:00:06;98774.41;;;2.60;71.66
39487;BME280;25173;50.430;18.926;2023-04-03T04:03:15;98784.31;;;2.53;71.76
39487;BME280;25173;50.430;18.926;2023-04-03T04:06:24;98787.44;;;2.44;71.70
39487;BME280;25173;50.430;18.926;2023-04-03T04:09:26;98789.72;;;2.40;71.81
39487;BME280;25173;50.430;18.926;2023-04-03T04:12:27;98794.88;;;2.35;71.95
39487;BME280;25173;50.430;18.926;2023-04-03T04:15:28;98791.56;;;2.33;72.03
39487;BME280;25173;50.430;18.926;2023-04-03T04:18:31;98799.00;;;2.31;71.99
39487;BME280;25173;50.430;18.926;2023-04-03T04:21:31;98793.63;;;2.24;71.56
39487;BME280;25173;50.430;18.926;2023-04-03T04:24:32;98797.31;;;2.10;72.01
39487;BME280;25173;50.430;18.926;2023-04-03T04:27:35;98799.63;;;2.07;72.24
39487;BME280;25173;50.430;18.926;2023-04-03T04:30:36;98798.97;;;2.05;72.33
39487;BME280;25173;50.430;18.926;2023-04-03T04:33:37;98794.00;;;2.02;72.26
39487;BME280;25173;50.430;18.926;2023-04-03T04:36:40;98805.56;;;2.02;72.38
39487;BME280;25173;50.430;18.926;2023-04-03T04:39:41;98800.19;;;1.95;72.16
39487;BME280;25173;50.430;18.926;2023-04-03T04:42:43;98803.72;;;1.96;72.27
39487;BME280;25173;50.430;18.926;2023-04-03T04:45:44;98813.63;;;1.95;72.19
39487;BME280;25173;50.430;18.926;2023-04-03T04:48:45;98810.53;;;1.99;72.30
39487;BME280;25173;50.430;18.926;2023-04-03T04:51:47;98817.34;;;2.01;72.22
39487;BME280;25173;50.430;18.926;2023-04-03T04:54:48;98825.22;;;2.03;72.19
39487;BME280;25173;50.430;18.926;2023-04-03T04:57:49;98819.44;;;2.06;72.07
39487;BME280;25173;50.430;18.926;2023-04-03T05:00:58;98827.72;;;2.11;71.89
39487;BME280;25173;50.430;18.926;2023-04-03T05:03:59;98828.53;;;2.18;71.99
39487;BME280;25173;50.430;18.926;2023-04-03T05:07:00;98829.38;;;2.18;71.26
39487;BME280;25173;50.430;18.926;2023-04-03T05:10:03;98833.72;;;2.19;71.27
39487;BME280;25173;50.430;18.926;2023-04-03T05:13:05;98842.81;;;2.18;71.40
39487;BME280;25173;50.430;18.926;2023-04-03T05:16:06;98837.03;;;2.15;71.25
39487;BME280;25173;50.430;18.926;2023-04-03T05:19:07;98839.09;;;2.19;71.44
39487;BME280;25173;50.430;18.926;2023-04-03T05:22:08;98842.63;;;2.20;70.89
39487;BME280;25173;50.430;18.926;2023-04-03T05:25:09;98853.56;;;2.18;70.92
39487;BME280;25173;50.430;18.926;2023-04-03T05:28:11;98859.13;;;2.17;70.78
39487;BME280;25173;50.430;18.926;2023-04-03T05:31:12;98853.38;;;2.20;70.68
39487;BME280;25173;50.430;18.926;2023-04-03T05:34:13;98858.94;;;2.18;70.10
39487;BME280;25173;50.430;18.926;2023-04-03T05:37:15;98858.09;;;2.18;70.58
39487;BME280;25173;50.430;18.926;2023-04-03T05:40:16;98862.44;;;2.19;70.61
39487;BME280;25173;50.430;18.926;2023-04-03T05:43:20;98867.19;;;2.17;70.01
39487;BME280;25173;50.430;18.926;2023-04-03T05:46:21;98865.13;;;2.12;70.16
39487;BME280;25173;50.430;18.926;2023-04-03T05:49:26;98863.47;;;2.18;70.49
39487;BME280;25173;50.430;18.926;2023-04-03T05:52:30;98863.09;;;2.34;70.75
39487;BME280;25173;50.430;18.926;2023-04-03T05:55:31;98863.56;;;2.51;70.38
39487;BME280;25173;50.430;18.926;2023-04-03T05:58:33;98856.72;;;2.61;69.93
39487;BME280;25173;50.430;18.926;2023-04-03T06:01:35;98858.19;;;2.70;69.68
39487;BME280;25173;50.430;18.926;2023-04-03T06:04:35;98867.72;;;2.66;68.93
39487;BME280;25173;50.430;18.926;2023-04-03T06:07:36;98869.97;;;2.63;69.39
39487;BME280;25173;50.430;18.926;2023-04-03T06:10:38;98868.31;;;2.55;69.05
39487;BME280;25173;50.430;18.926;2023-04-03T06:13:39;98872.44;;;2.51;68.88
39487;BME280;25173;50.430;18.926;2023-04-03T06:16:40;98879.88;;;2.56;69.14
39487;BME280;25173;50.430;18.926;2023-04-03T06:19:41;98883.84;;;2.66;69.63
39487;BME280;25173;50.430;18.926;2023-04-03T06:22:42;98887.56;;;2.79;69.13
39487;BME280;25173;50.430;18.926;2023-04-03T06:25:42;98889.63;;;2.83;68.86
39487;BME280;25173;50.430;18.926;2023-04-03T06:28:43;98893.38;;;2.89;68.34
39487;BME280;25173;50.430;18.926;2023-04-03T06:31:43;98885.06;;;2.84;68.09
39487;BME280;25173;50.430;18.926;2023-04-03T06:34:44;98891.72;;;2.88;68.10
39487;BME280;25173;50.430;18.926;2023-04-03T06:37:45;98906.38;;;2.98;68.21
39487;BME280;25173;50.430;18.926;2023-04-03T06:40:46;98905.78;;;3.03;67.45
39487;BME280;25173;50.430;18.926;2023-04-03T06:43:47;98904.72;;;3.04;67.79
39487;BME280;25173;50.430;18.926;2023-04-03T06:46:48;98908.25;;;3.11;66.76
39487;BME280;25173;50.430;18.926;2023-04-03T06:49:49;98912.78;;;2.97;66.44
39487;BME280;25173;50.430;18.926;2023-04-03T06:52:50;98915.72;;;2.96;66.82
39487;BME280;25173;50.430;18.926;2023-04-03T06:55:51;98915.50;;;2.91;66.82
39487;BME280;25173;50.430;18.926;2023-04-03T06:58:53;98914.88;;;2.95;67.17
39487;BME280;25173;50.430;18.926;2023-04-03T07:01:58;98921.09;;;3.09;67.17
39487;BME280;25173;50.430;18.926;2023-04-03T07:05:00;98932.25;;;3.12;66.51
39487;BME280;25173;50.430;18.926;2023-04-03T07:08:00;98937.63;;;3.19;66.88
39487;BME280;25173;50.430;18.926;2023-04-03T07:11:01;98944.66;;;3.27;66.23
39487;BME280;25173;50.430;18.926;2023-04-03T07:14:02;98943.84;;;3.26;65.87
39487;BME280;25173;50.430;18.926;2023-04-03T07:17:03;98929.13;;;3.35;66.24
39487;BME280;25173;50.430;18.926;2023-04-03T07:20:04;98933.91;;;3.46;65.93
39487;BME280;25173;50.430;18.926;2023-04-03T07:23:05;98944.00;;;3.58;65.60
39487;BME280;25173;50.430;18.926;2023-04-03T07:26:06;98940.72;;;3.62;65.22
39487;BME280;25173;50.430;18.926;2023-04-03T07:29:08;98949.00;;;3.61;64.38
39487;BME280;25173;50.430;18.926;2023-04-03T07:32:10;98948.56;;;3.64;64.65
39487;BME280;25173;50.430;18.926;2023-04-03T07:35:10;98951.25;;;3.77;64.41
39487;BME280;25173;50.430;18.926;2023-04-03T07:38:11;98959.50;;;3.88;63.46
39487;BME280;25173;50.430;18.926;2023-04-03T07:41:15;98957.88;;;3.74;62.23
39487;BME280;25173;50.430;18.926;2023-04-03T07:44:16;98945.66;;;3.65;62.38
39487;BME280;25173;50.430;18.926;2023-04-03T07:47:17;98963.69;;;3.65;62.04
39487;BME280;25173;50.430;18.926;2023-04-03T07:50:18;98957.06;;;3.61;61.70
39487;BME280;25173;50.430;18.926;2023-04-03T07:53:19;98963.09;;;3.63;62.08
39487;BME280;25173;50.430;18.926;2023-04-03T07:56:20;98960.59;;;3.61;61.24
39487;BME280;25173;50.430;18.926;2023-04-03T07:59:21;98952.91;;;3.58;60.53
39487;BME280;25173;50.430;18.926;2023-04-03T08:02:21;98955.41;;;3.66;61.81
39487;BME280;25173;50.430;18.926;2023-04-03T08:05:22;98956.59;;;3.90;62.11
39487;BME280;25173;50.430;18.926;2023-04-03T08:08:23;98958.63;;;4.01;60.97
39487;BME280;25173;50.430;18.926;2023-04-03T08:11:24;98950.72;;;4.13;61.08
39487;BME280;25173;50.430;18.926;2023-04-03T08:14:27;98952.94;;;4.22;59.33
39487;BME280;25173;50.430;18.926;2023-04-03T08:17:27;98949.84;;;4.19;57.26
39487;BME280;25173;50.430;18.926;2023-04-03T08:20:28;98957.97;;;4.12;56.65
39487;BME280;25173;50.430;18.926;2023-04-03T08:23:28;98949.03;;;4.18;57.57
39487;BME280;25173;50.430;18.926;2023-04-03T08:26:29;98955.38;;;4.37;58.53
39487;BME280;25173;50.430;18.926;2023-04-03T08:29:30;98956.53;;;4.54;57.72
39487;BME280;25173;50.430;18.926;2023-04-03T08:32:33;98946.72;;;4.60;56.76
39487;BME280;25173;50.430;18.926;2023-04-03T08:35:39;98950.56;;;4.77;56.41
39487;BME280;25173;50.430;18.926;2023-04-03T08:38:40;98953.97;;;4.97;55.67
39487;BME280;25173;50.430;18.926;2023-04-03T08:41:45;98960.31;;;5.10;54.14
39487;BME280;25173;50.430;18.926;2023-04-03T08:44:58;98981.72;;;5.04;51.46
39487;BME280;25173;50.430;18.926;2023-04-03T08:48:05;98964.94;;;5.02;52.31
39487;BME280;25173;50.430;18.926;2023-04-03T08:51:15;98960.97;;;5.05;53.31
39487;BME280;25173;50.430;18.926;2023-04-03T08:54:38;98956.84;;;5.02;51.21
39487;BME280;25173;50.430;18.926;2023-04-03T08:57:44;98967.03;;;5.00;53.76
39487;BME280;25173;50.430;18.926;2023-04-03T09:01:03;98963.84;;;5.10;53.37
39487;BME280;25173;50.430;18.926;2023-04-03T09:04:15;98965.38;;;4.99;49.56
39487;BME280;25173;50.430;18.926;2023-04-03T09:07:23;98960.69;;;4.88;50.27
39487;BME280;25173;50.430;18.926;2023-04-03T09:10:32;98956.34;;;4.87;51.32
39487;BME280;25173;50.430;18.926;2023-04-03T09:13:42;98964.47;;;4.81;51.54
39487;BME280;25173;50.430;18.926;2023-04-03T09:19:58;98975.50;;;5.04;51.04
39487;BME280;25173;50.430;18.926;2023-04-03T09:23:12;98973.94;;;4.96;50.59
39487;BME280;25173;50.430;18.926;2023-04-03T09:26:36;98979.34;;;4.90;48.34
39487;BME280;25173;50.430;18.926;2023-04-03T09:29:42;98972.53;;;4.87;51.03
39487;BME280;25173;50.430;18.926;2023-04-03T09:32:45;98973.00;;;5.09;52.73
39487;BME280;25173;50.430;18.926;2023-04-03T09:35:47;98979.53;;;5.20;50.83
39487;BME280;25173;50.430;18.926;2023-04-03T09:39:03;98978.13;;;5.17;48.98
39487;BME280;25173;50.430;18.926;2023-04-03T09:42:25;98977.03;;;5.25;48.96
39487;BME280;25173;50.430;18.926;2023-04-03T09:45:26;98983.91;;;5.21;49.93
39487;BME280;25173;50.430;18.926;2023-04-03T09:48:27;98989.09;;;5.22;50.27
39487;BME280;25173;50.430;18.926;2023-04-03T09:51:29;98973.28;;;5.26;50.71
39487;BME280;25173;50.430;18.926;2023-04-03T09:54:36;98982.25;;;5.44;50.64
39487;BME280;25173;50.430;18.926;2023-04-03T09:57:38;98983.53;;;5.42;49.59
39487;BME280;25173;50.430;18.926;2023-04-03T10:00:39;98981.88;;;5.41;50.11
39487;BME280;25173;50.430;18.926;2023-04-03T10:03:40;98973.53;;;5.42;49.11
39487;BME280;25173;50.430;18.926;2023-04-03T10:06:48;98993.63;;;5.53;49.45
39487;BME280;25173;50.430;18.926;2023-04-03T10:10:16;98987.13;;;5.61;49.56
39487;BME280;25173;50.430;18.926;2023-04-03T10:13:17;98989.53;;;5.69;49.55
39487;BME280;25173;50.430;18.926;2023-04-03T10:16:47;98994.41;;;5.78;48.83
39487;BME280;25173;50.430;18.926;2023-04-03T10:19:53;98993.13;;;5.88;50.14
39487;BME280;25173;50.430;18.926;2023-04-03T10:23:21;98968.94;;;6.11;50.16
39487;BME280;25173;50.430;18.926;2023-04-03T10:29:30;98977.03;;;6.47;49.33
39487;BME280;25173;50.430;18.926;2023-04-03T10:36:10;98991.81;;;6.81;45.37
39487;BME280;25173;50.430;18.926;2023-04-03T10:46:00;98984.13;;;6.78;46.28
39487;BME280;25173;50.430;18.926;2023-04-03T10:49:16;98976.22;;;6.77;46.16
39487;BME280;25173;50.430;18.926;2023-04-03T10:52:45;98967.84;;;7.08;44.22
39487;BME280;25173;50.430;18.926;2023-04-03T10:55:56;98974.22;;;7.14;45.94
39487;BME280;25173;50.430;18.926;2023-04-03T10:59:11;98976.75;;;6.97;43.70
39487;BME280;25173;50.430;18.926;2023-04-03T11:02:24;98978.25;;;6.81;43.89
39487;BME280;25173;50.430;18.926;2023-04-03T11:05:37;98977.59;;;6.68;44.77
39487;BME280;25173;50.430;18.926;2023-04-03T11:09:02;98982.94;;;6.74;45.14
39487;BME280;25173;50.430;18.926;2023-04-03T11:12:10;98974.72;;;6.81;44.94
39487;BME280;25173;50.430;18.926;2023-04-03T11:15:15;98976.97;;;6.84;45.12
39487;BME280;25173;50.430;18.926;2023-04-03T11:21:37;98971.84;;;7.70;47.00
39487;BME280;25173;50.430;18.926;2023-04-03T11:24:43;98964.28;;;7.96;43.19
39487;BME280;25173;50.430;18.926;2023-04-03T11:28:09;98949.72;;;8.25;41.13
39487;BME280;25173;50.430;18.926;2023-04-03T11:31:27;98956.19;;;8.76;44.66
39487;BME280;25173;50.430;18.926;2023-04-03T11:34:40;98945.41;;;9.43;45.02
39487;BME280;25173;50.430;18.926;2023-04-03T11:37:49;98953.19;;;9.89;44.20
39487;BME280;25173;50.430;18.926;2023-04-03T11:40:51;98973.50;;;9.65;42.38
39487;BME280;25173;50.430;18.926;2023-04-03T11:47:00;98955.69;;;8.79;40.95
39487;BME280;25173;50.430;18.926;2023-04-03T11:50:03;98956.31;;;8.41;41.76
39487;BME280;25173;50.430;18.926;2023-04-03T11:59:37;98960.47;;;8.20;40.47
39487;BME280;25173;50.430;18.926;2023-04-03T12:02:37;98963.03;;;8.27;41.14
39487;BME280;25173;50.430;18.926;2023-04-03T12:05:38;98944.69;;;8.57;42.28
39487;BME280;25173;50.430;18.926;2023-04-03T12:11:39;98953.91;;;9.63;40.98
39487;BME280;25173;50.430;18.926;2023-04-03T12:14:40;98962.13;;;8.89;38.48
39487;BME280;25173;50.430;18.926;2023-04-03T12:17:41;98948.69;;;8.14;38.03
39487;BME280;25173;50.430;18.926;2023-04-03T12:27:25;98947.13;;;8.18;40.42
39487;BME280;25173;50.430;18.926;2023-04-03T12:30:29;98952.31;;;8.32;39.45
39487;BME280;25173;50.430;18.926;2023-04-03T12:37:21;98961.03;;;8.74;39.26
39487;BME280;25173;50.430;18.926;2023-04-03T12:40:37;98951.06;;;9.08;37.85
39487;BME280;25173;50.430;18.926;2023-04-03T12:46:54;98932.94;;;10.02;41.12
39487;BME280;25173;50.430;18.926;2023-04-03T12:49:56;98938.88;;;10.81;40.59
39487;BME280;25173;50.430;18.926;2023-04-03T12:53:06;98938.53;;;11.04;37.49
39487;BME280;25173;50.430;18.926;2023-04-03T12:56:31;98944.25;;;10.54;36.77
39487;BME280;25173;50.430;18.926;2023-04-03T12:59:32;98942.41;;;10.16;37.52
39487;BME280;25173;50.430;18.926;2023-04-03T13:02:33;98930.03;;;10.25;39.49
39487;BME280;25173;50.430;18.926;2023-04-03T13:05:35;98937.75;;;10.55;38.61
39487;BME280;25173;50.430;18.926;2023-04-03T13:08:36;98938.38;;;10.40;38.23
39487;BME280;25173;50.430;18.926;2023-04-03T13:11:39;98940.22;;;9.96;36.47
39487;BME280;25173;50.430;18.926;2023-04-03T13:14:55;98939.88;;;9.54;36.37
39487;BME280;25173;50.430;18.926;2023-04-03T13:17:56;98949.13;;;9.53;37.96
39487;BME280;25173;50.430;18.926;2023-04-03T13:21:06;98938.06;;;9.60;36.69
39487;BME280;25173;50.430;18.926;2023-04-03T13:24:08;98937.72;;;9.73;38.51
39487;BME280;25173;50.430;18.926;2023-04-03T13:27:11;98941.28;;;9.40;37.16
39487;BME280;25173;50.430;18.926;2023-04-03T13:30:20;98942.88;;;8.91;36.58
39487;BME280;25173;50.430;18.926;2023-04-03T13:33:24;98945.44;;;8.81;37.98
39487;BME280;25173;50.430;18.926;2023-04-03T13:36:33;98944.47;;;9.20;38.50
39487;BME280;25173;50.430;18.926;2023-04-03T13:39:36;98946.88;;;9.67;38.23
39487;BME280;25173;50.430;18.926;2023-04-03T13:42:39;98934.06;;;10.23;38.47
39487;BME280;25173;50.430;18.926;2023-04-03T13:45:53;98949.63;;;10.71;34.37
39487;BME280;25173;50.430;18.926;2023-04-03T13:48:56;98939.16;;;10.84;38.00
39487;BME280;25173;50.430;18.926;2023-04-03T13:51:57;98944.72;;;11.26;37.62
39487;BME280;25173;50.430;18.926;2023-04-03T13:55:02;98944.00;;;11.36;37.73
39487;BME280;25173;50.430;18.926;2023-04-03T13:58:20;98955.59;;;10.68;35.08
39487;BME280;25173;50.430;18.926;2023-04-03T14:01:23;98952.53;;;9.99;36.77
39487;BME280;25173;50.430;18.926;2023-04-03T14:04:30;98957.22;;;9.87;37.29
39487;BME280;25173;50.430;18.926;2023-04-03T14:07:31;98953.41;;;10.21;37.24
39487;BME280;25173;50.430;18.926;2023-04-03T14:10:32;98953.25;;;10.55;37.93
39487;BME280;25173;50.430;18.926;2023-04-03T14:13:32;98950.41;;;10.66;37.08
39487;BME280;25173;50.430;18.926;2023-04-03T14:16:38;98952.59;;;10.42;37.22
39487;BME280;25173;50.430;18.926;2023-04-03T14:19:39;98968.09;;;10.20;37.29
39487;BME280;25173;50.430;18.926;2023-04-03T14:22:41;98959.81;;;9.77;36.51
39487;BME280;25173;50.430;18.926;2023-04-03T14:25:42;98955.69;;;9.24;36.88
39487;BME280;25173;50.430;18.926;2023-04-03T14:28:44;98949.44;;;8.78;37.48
39487;BME280;25173;50.430;18.926;2023-04-03T14:31:46;98962.13;;;8.73;38.54
39487;BME280;25173;50.430;18.926;2023-04-03T14:34:48;98957.78;;;8.60;37.83
39487;BME280;25173;50.430;18.926;2023-04-03T14:37:51;98970.56;;;8.48;38.27
39487;BME280;25173;50.430;18.926;2023-04-03T14:40:53;98966.00;;;8.37;38.24
39487;BME280;25173;50.430;18.926;2023-04-03T14:43:53;98965.50;;;8.40;38.78
39487;BME280;25173;50.430;18.926;2023-04-03T14:46:54;98970.84;;;8.35;38.50
39487;BME280;25173;50.430;18.926;2023-04-03T14:49:57;98964.34;;;8.36;38.58
39487;BME280;25173;50.430;18.926;2023-04-03T14:52:58;98965.91;;;8.20;38.32
39487;BME280;25173;50.430;18.926;2023-04-03T14:55:59;98974.84;;;8.09;38.87
39487;BME280;25173;50.430;18.926;2023-04-03T14:59:01;98976.53;;;7.98;38.84
39487;BME280;25173;50.430;18.926;2023-04-03T15:02:01;98969.94;;;7.94;38.98
39487;BME280;25173;50.430;18.926;2023-04-03T15:05:06;98972.19;;;7.97;38.79
39487;BME280;25173;50.430;18.926;2023-04-03T15:08:16;98975.22;;;8.01;39.15
39487;BME280;25173;50.430;18.926;2023-04-03T15:11:17;98967.09;;;8.01;38.87
39487;BME280;25173;50.430;18.926;2023-04-03T15:14:18;98965.78;;;8.15;39.42
39487;BME280;25173;50.430;18.926;2023-04-03T15:17:21;98973.44;;;8.18;39.36
39487;BME280;25173;50.430;18.926;2023-04-03T15:20:25;98976.41;;;7.93;39.09
39487;BME280;25173;50.430;18.926;2023-04-03T15:23:26;98976.78;;;7.73;38.95
39487;BME280;25173;50.430;18.926;2023-04-03T15:26:29;98983.59;;;7.53;39.14
39487;BME280;25173;50.430;18.926;2023-04-03T15:29:29;98981.84;;;7.47;39.36
39487;BME280;25173;50.430;18.926;2023-04-03T15:32:30;98971.06;;;7.28;38.85
39487;BME280;25173;50.430;18.926;2023-04-03T15:35:31;98975.53;;;7.23;39.68
39487;BME280;25173;50.430;18.926;2023-04-03T15:38:32;98974.88;;;7.39;40.07
39487;BME280;25173;50.430;18.926;2023-04-03T15:41:32;98976.41;;;7.47;39.94
39487;BME280;25173;50.430;18.926;2023-04-03T15:44:34;98973.38;;;7.55;40.24
39487;BME280;25173;50.430;18.926;2023-04-03T15:47:35;98978.56;;;7.68;40.49
39487;BME280;25173;50.430;18.926;2023-04-03T15:50:35;98977.00;;;7.72;40.03
39487;BME280;25173;50.430;18.926;2023-04-03T15:53:36;98981.38;;;7.73;40.11
39487;BME280;25173;50.430;18.926;2023-04-03T15:56:37;98990.69;;;7.65;39.99
39487;BME280;25173;50.430;18.926;2023-04-03T15:59:37;98977.63;;;7.62;40.15
39487;BME280;25173;50.430;18.926;2023-04-03T16:02:38;98968.84;;;7.49;39.68
39487;BME280;25173;50.430;18.926;2023-04-03T16:05:39;98976.28;;;7.41;40.04
39487;BME280;25173;50.430;18.926;2023-04-03T16:08:41;98975.00;;;7.32;39.87
39487;BME280;25173;50.430;18.926;2023-04-03T16:11:42;98975.53;;;7.23;39.86
39487;BME280;25173;50.430;18.926;2023-04-03T16:14:43;98987.88;;;7.07;39.81
39487;BME280;25173;50.430;18.926;2023-04-03T16:17:44;98982.66;;;6.94;40.05
39487;BME280;25173;50.430;18.926;2023-04-03T16:20:45;98986.13;;;6.83;39.81
39487;BME280;25173;50.430;18.926;2023-04-03T16:23:46;98986.59;;;6.80;40.64
39487;BME280;25173;50.430;18.926;2023-04-03T16:26:47;98995.09;;;6.83;40.56
39487;BME280;25173;50.430;18.926;2023-04-03T16:29:47;98991.59;;;6.65;40.17
39487;BME280;25173;50.430;18.926;2023-04-03T16:32:48;99001.47;;;6.59;40.76
39487;BME280;25173;50.430;18.926;2023-04-03T16:35:50;98986.78;;;6.67;40.67
39487;BME280;25173;50.430;18.926;2023-04-03T16:38:51;98992.03;;;6.61;40.86
39487;BME280;25173;50.430;18.926;2023-04-03T16:41:51;98990.38;;;6.60;41.22
39487;BME280;25173;50.430;18.926;2023-04-03T16:44:52;98989.34;;;6.61;40.98
39487;BME280;25173;50.430;18.926;2023-04-03T16:47:53;98994.47;;;6.51;40.82
39487;BME280;25173;50.430;18.926;2023-04-03T16:50:53;98999.00;;;6.39;41.11
39487;BME280;25173;50.430;18.926;2023-04-03T16:53:54;98999.00;;;6.39;41.30
39487;BME280;25173;50.430;18.926;2023-04-03T16:56:55;99004.56;;;6.44;41.43
39487;BME280;25173;50.430;18.926;2023-04-03T16:59:55;99010.34;;;6.48;41.35